createdAt,value
2019-03-06T00:00:58.347Z,8.78
2019-03-06T00:15:51.405Z,8.03
2019-03-06T00:30:51.532Z,8.33
2019-03-06T00:45:51.293Z,8.65
2019-03-06T01:00:51.394Z,11.15
2019-03-06T01:15:50.650Z,13.62
2019-03-06T01:30:50.495Z,12.70
2019-03-06T01:45:51.476Z,11.10
2019-03-06T02:00:51.439Z,12.75
2019-03-06T02:15:50.840Z,10.72
2019-03-06T02:30:52.764Z,11.63
2019-03-06T02:45:51.681Z,13.00
2019-03-06T03:15:51.077Z,14.65
2019-03-06T03:30:51.488Z,11.93
2019-03-06T03:45:59.283Z,15.70
2019-03-06T04:00:50.823Z,16.05
2019-03-06T04:15:51.268Z,16.60
2019-03-06T04:30:54.009Z,13.15
2019-03-06T04:45:50.759Z,13.50
2019-03-06T05:00:49.903Z,11.73
2019-03-06T05:15:58.773Z,16.65
2019-03-06T05:30:50.968Z,17.92
2019-03-06T05:45:51.043Z,12.98
2019-03-06T06:00:51.024Z,16.50
2019-03-06T06:15:52.160Z,18.55
2019-03-06T06:30:53.502Z,15.60
2019-03-06T06:45:51.463Z,19.80
2019-03-06T07:15:57.401Z,19.80
2019-03-06T07:30:59.885Z,18.65
2019-03-06T07:45:58.559Z,23.52
2019-03-06T08:00:53.544Z,26.27
2019-03-06T08:15:58.248Z,22.85
2019-03-06T08:30:53.939Z,29.40
2019-03-06T08:45:56.432Z,46.58
2019-03-06T09:15:56.264Z,33.67
2019-03-06T09:30:57.084Z,34.27
2019-03-06T10:30:51.312Z,6.58
2019-03-06T10:45:51.173Z,6.10
2019-03-06T11:00:53.172Z,8.00
2019-03-06T11:18:56.079Z,7.30
2019-03-06T11:30:52.907Z,7.42
2019-03-06T11:45:50.299Z,4.35
2019-03-06T12:00:50.344Z,3.75
2019-03-06T12:15:53.696Z,6.60
2019-03-06T12:30:51.619Z,7.00
2019-03-06T13:00:50.362Z,4.67
2019-03-06T13:15:50.063Z,3.42
2019-03-06T13:30:49.750Z,4.28
2019-03-06T14:00:50.795Z,7.17
2019-03-06T14:15:53.930Z,8.10
2019-03-06T14:30:51.045Z,4.08
2019-03-06T14:45:50.963Z,6.67
2019-03-06T15:00:50.821Z,4.15
2019-03-06T15:15:51.240Z,5.65
2019-03-06T15:30:50.958Z,5.03
2019-03-06T15:45:50.870Z,5.53
2019-03-06T16:00:53.015Z,10.23
2019-03-06T16:15:51.492Z,7.45
2019-03-06T16:30:51.645Z,8.18
2019-03-06T16:45:53.588Z,15.43
2019-03-06T17:15:52.409Z,12.98
2019-03-06T17:45:54.803Z,28.10
2019-03-06T18:00:54.057Z,13.70
2019-03-06T18:15:53.497Z,17.50
2019-03-06T18:30:50.942Z,15.20
2019-03-06T18:45:52.352Z,18.10
2019-03-06T19:00:54.612Z,25.95
2019-03-06T19:15:56.026Z,18.07
2019-03-06T19:30:53.545Z,26.62
2019-03-06T19:45:51.172Z,31.40
2019-03-06T20:00:54.068Z,24.75
2019-03-06T20:45:59.364Z,17.57
2019-03-06T21:00:55.851Z,22.37
2019-03-06T22:00:57.476Z,37.67
2019-03-06T22:15:54.183Z,26.77
2019-03-06T22:30:55.074Z,21.82
2019-03-06T22:45:54.945Z,30.40
2019-03-06T23:15:52.848Z,24.80
2019-03-06T23:30:58.095Z,25.25
2019-03-06T23:45:51.499Z,26.48
